Time;durP1;ratioP1;P1;durP2;ratioP2;P2;SDS_P1;SDS_P2;PMS_P1;PMS_P2;Temp;Humidity;BMP_temperature;BMP_pressure;BME280_temperature;BME280_humidity;BME280_pressure;Samples;Min_cycle;Max_cycle;Signal;HPM_P1;HPM_P2
2022/01/09 00:01:17;;;;;;;1.67;1.20;;;5.10;99.90;;;;;;4179232;28;20388;-65
2022/01/09 00:03:18;;;;;;;1.13;0.95;;;5.20;99.90;;;;;;4180458;28;20037;-65
2022/01/09 00:05:19;;;;;;;2.05;1.05;;;5.20;99.90;;;;;;4179184;28;20056;-65
2022/01/09 00:07:20;;;;;;;1.27;0.80;;;5.10;99.90;;;;;;4178555;28;20041;-65
2022/01/09 00:09:20;;;;;;;1.77;1.13;;;5.20;99.90;;;;;;4178699;28;20044;-65
2022/01/09 00:11:26;;;;;;;1.42;1.10;;;5.20;99.90;;;;;;4179949;28;20041;-65
2022/01/09 00:13:26;;;;;;;2.35;0.98;;;5.20;99.90;;;;;;4178350;28;20033;-65
2022/01/09 00:15:27;;;;;;;1.30;0.80;;;5.20;99.90;;;;;;4177170;28;20114;-65
2022/01/09 00:17:28;;;;;;;1.92;0.70;;;5.20;99.90;;;;;;4179112;28;20037;-65
2022/01/09 00:19:29;;;;;;;2.22;0.80;;;5.20;99.90;;;;;;4180790;28;20041;-65
2022/01/09 00:21:29;;;;;;;1.30;0.90;;;5.20;99.90;;;;;;4178040;28;20037;-65
2022/01/09 00:23:30;;;;;;;1.35;0.88;;;5.20;99.90;;;;;;4177364;28;20037;-65
2022/01/09 00:25:31;;;;;;;0.90;0.60;;;5.30;99.90;;;;;;4178624;28;20056;-65
2022/01/09 00:27:32;;;;;;;1.08;0.70;;;5.30;99.90;;;;;;4180584;28;20468;-65
2022/01/09 00:29:32;;;;;;;1.27;0.60;;;5.30;99.90;;;;;;4179397;28;20083;-65
2022/01/09 00:31:34;;;;;;;1.67;0.70;;;5.20;99.90;;;;;;4176695;28;20090;-65
2022/01/09 00:33:34;;;;;;;1.00;0.50;;;5.30;99.90;;;;;;4164343;28;20083;-65
2022/01/09 00:35:35;;;;;;;1.15;0.80;;;5.30;99.90;;;;;;4179935;28;20044;-65
2022/01/09 00:37:36;;;;;;;0.80;0.60;;;5.30;99.90;;;;;;4178859;28;20029;-65
2022/01/09 00:39:36;;;;;;;1.95;1.00;;;5.30;99.90;;;;;;4177573;28;20168;-65
2022/01/09 00:41:37;;;;;;;0.88;0.70;;;5.30;99.90;;;;;;4178505;28;20087;-65
2022/01/09 00:43:37;;;;;;;1.40;0.77;;;5.30;99.90;;;;;;4176716;28;20094;-65
2022/01/09 00:45:41;;;;;;;0.82;0.75;;;5.30;99.90;;;;;;4176362;28;20029;-65
2022/01/09 00:47:42;;;;;;;2.03;0.93;;;5.40;99.90;;;;;;4177872;28;20088;-65
2022/01/09 00:49:43;;;;;;;1.15;1.00;;;5.40;99.90;;;;;;4179321;28;20060;-65
2022/01/09 00:51:43;;;;;;;1.33;0.90;;;5.40;99.90;;;;;;4176976;28;20029;-65
2022/01/09 00:53:44;;;;;;;1.88;1.02;;;5.40;99.90;;;;;;4176406;28;20479;-65
2022/01/09 00:55:45;;;;;;;1.73;1.33;;;5.40;99.90;;;;;;4177966;28;20079;-65
2022/01/09 00:57:45;;;;;;;1.45;1.20;;;5.40;99.90;;;;;;4177452;28;20040;-65
2022/01/09 00:59:46;;;;;;;2.20;1.10;;;5.40;99.90;;;;;;4176216;28;20526;-65
2022/01/09 01:01:47;;;;;;;2.20;1.17;;;5.30;99.90;;;;;;4177240;28;20033;-65
2022/01/09 01:03:47;;;;;;;2.10;1.10;;;5.30;99.90;;;;;;4179583;28;20037;-65
2022/01/09 01:05:48;;;;;;;1.80;0.98;;;5.30;99.90;;;;;;4177914;28;20048;-65
2022/01/09 01:07:48;;;;;;;1.45;1.15;;;5.30;99.90;;;;;;4177811;28;20471;-65
2022/01/09 01:09:49;;;;;;;1.50;0.93;;;5.30;99.90;;;;;;4178301;28;20033;-65
2022/01/09 01:11:50;;;;;;;2.38;1.23;;;5.30;99.90;;;;;;4175778;28;20029;-65
2022/01/09 01:13:51;;;;;;;0.90;0.75;;;5.30;99.90;;;;;;4177999;28;20131;-65
2022/01/09 01:15:52;;;;;;;1.45;1.00;;;5.30;99.90;;;;;;4176840;28;20041;-65
2022/01/09 01:17:52;;;;;;;2.03;0.98;;;5.40;99.90;;;;;;4179400;28;20456;-65
2022/01/09 01:19:53;;;;;;;1.00;0.82;;;5.40;99.90;;;;;;4176745;28;20417;-65
2022/01/09 01:21:54;;;;;;;3.85;1.30;;;5.40;99.90;;;;;;4163346;28;20119;-65
2022/01/09 01:23:55;;;;;;;1.90;1.10;;;5.40;99.90;;;;;;4177311;28;20048;-65
2022/01/09 01:26:00;;;;;;;1.42;1.23;;;5.40;99.90;;;;;;4176274;28;20112;-64
2022/01/09 01:28:01;;;;;;;1.75;1.20;;;5.50;99.90;;;;;;4178489;28;20044;-65
2022/01/09 01:30:03;;;;;;;1.52;1.02;;;5.50;99.90;;;;;;4178239;28;20456;-65
2022/01/09 01:32:05;;;;;;;0.95;0.80;;;5.50;99.90;;;;;;4177384;28;20044;-65
2022/01/09 01:34:05;;;;;;;1.02;0.73;;;5.60;99.90;;;;;;4177805;28;20544;-65
2022/01/09 01:36:06;;;;;;;1.42;1.02;;;5.60;99.90;;;;;;4178586;28;20045;-65
2022/01/09 01:38:06;;;;;;;1.35;0.85;;;5.60;99.90;;;;;;4177910;28;20423;-65
2022/01/09 01:40:16;;;;;;;1.25;0.93;;;5.60;99.90;;;;;;4178206;28;20043;-65
2022/01/09 01:42:17;;;;;;;1.98;0.90;;;5.60;99.90;;;;;;4176296;28;20052;-65
2022/01/09 01:44:18;;;;;;;1.50;0.85;;;5.60;99.90;;;;;;4177733;28;20472;-65
2022/01/09 01:46:19;;;;;;;2.17;0.90;;;5.70;99.90;;;;;;4178289;28;20491;-65
2022/01/09 01:48:19;;;;;;;1.10;0.80;;;5.70;99.90;;;;;;4177279;28;20029;-65
2022/01/09 01:50:20;;;;;;;1.17;0.88;;;5.70;99.90;;;;;;4178470;28;20144;-65
2022/01/09 01:52:33;;;;;;;0.50;0.45;;;5.70;99.90;;;;;;4177216;28;20064;-65
2022/01/09 01:54:34;;;;;;;1.17;0.50;;;5.70;99.90;;;;;;4175332;28;20044;-65
2022/01/09 01:56:35;;;;;;;1.58;0.73;;;5.70;99.90;;;;;;4176980;28;20387;-65
2022/01/09 01:58:35;;;;;;;1.20;0.68;;;5.80;99.90;;;;;;4178729;28;20029;-65
2022/01/09 02:00:38;;;;;;;1.38;0.70;;;5.80;99.90;;;;;;4178279;28;20067;-65
2022/01/09 02:02:38;;;;;;;1.63;0.80;;;5.80;99.90;;;;;;4176887;28;20200;-64
2022/01/09 02:04:40;;;;;;;2.30;1.27;;;5.80;99.90;;;;;;4177831;28;20395;-65
2022/01/09 02:06:42;;;;;;;1.02;0.80;;;5.70;99.90;;;;;;4176714;28;20029;-65
2022/01/09 02:08:43;;;;;;;2.92;1.17;;;5.70;99.90;;;;;;4174732;28;20037;-65
2022/01/09 02:10:45;;;;;;;;;;;5.60;99.90;;;;;;4178674;28;20131;-65
2022/01/09 02:12:49;;;;;;;2.92;1.35;;;5.60;99.90;;;;;;4176958;28;19916;-65
2022/01/09 02:14:50;;;;;;;2.83;1.17;;;5.60;99.90;;;;;;4174769;28;20052;-65
2022/01/09 02:16:51;;;;;;;1.70;1.17;;;5.60;99.90;;;;;;4176345;28;20033;-65
2022/01/09 02:18:52;;;;;;;5.40;1.48;;;5.60;99.90;;;;;;4177583;28;20033;-65
2022/01/09 02:20:53;;;;;;;3.45;1.10;;;5.60;99.90;;;;;;4175369;28;20056;-65
2022/01/09 02:22:54;;;;;;;2.40;1.15;;;5.60;99.90;;;;;;4176078;28;20041;-65
2022/01/09 02:24:54;;;;;;;3.75;1.35;;;5.60;99.90;;;;;;4177232;28;20480;-65
2022/01/09 02:26:55;;;;;;;4.20;1.13;;;5.70;99.90;;;;;;4176415;28;20033;-65
2022/01/09 02:28:55;;;;;;;2.97;1.02;;;5.70;99.90;;;;;;4178958;28;20025;-64
2022/01/09 02:30:56;;;;;;;6.75;1.40;;;5.70;99.90;;;;;;4175717;28;20041;-64
2022/01/09 02:32:56;;;;;;;6.07;1.75;;;5.70;99.90;;;;;;4178007;28;20041;-64
2022/01/09 02:34:57;;;;;;;6.43;1.40;;;5.70;99.90;;;;;;4176631;28;20037;-64
2022/01/09 02:36:58;;;;;;;8.15;1.65;;;5.70;99.90;;;;;;4178173;28;20041;-65
2022/01/09 02:38:58;;;;;;;5.78;1.52;;;5.70;99.90;;;;;;4179734;28;20037;-64
2022/01/09 02:40:59;;;;;;;10.57;2.03;;;5.70;99.90;;;;;;4179912;28;20048;-64
2022/01/09 02:43:00;;;;;;;7.47;2.00;;;5.70;99.90;;;;;;4170592;28;20480;-64
2022/01/09 02:45:01;;;;;;;7.20;1.85;;;5.70;99.90;;;;;;4180910;28;20425;-64
2022/01/09 02:47:05;;;;;;;9.85;2.25;;;5.70;99.90;;;;;;4180193;28;20056;-64
2022/01/09 02:49:07;;;;;;;9.68;2.70;;;5.80;99.90;;;;;;4165185;28;20037;-64
2022/01/09 02:51:14;;;;;;;12.48;2.42;;;5.70;99.90;;;;;;4181157;28;20380;-64
2022/01/09 02:53:20;;;;;;;11.80;2.15;;;5.70;99.90;;;;;;4175966;28;20037;-65
2022/01/09 02:55:22;;;;;;;16.65;2.35;;;5.70;99.90;;;;;;4178207;28;20052;-65
2022/01/09 02:57:22;;;;;;;10.23;2.50;;;5.70;99.90;;;;;;4179778;28;20120;-64
2022/01/09 02:59:23;;;;;;;8.65;2.08;;;5.80;99.90;;;;;;4181640;28;20769;-65
2022/01/09 03:01:23;;;;;;;12.63;2.85;;;5.70;99.90;;;;;;4180586;28;20398;-64
2022/01/09 03:03:24;;;;;;;18.27;2.97;;;5.80;99.90;;;;;;4180411;28;20037;-65
2022/01/09 03:05:26;;;;;;;17.45;3.70;;;5.80;99.90;;;;;;4177909;28;20450;-64
2022/01/09 03:07:27;;;;;;;20.48;3.25;;;5.90;99.90;;;;;;4179235;28;20388;-65
2022/01/09 03:09:28;;;;;;;24.52;3.53;;;5.90;99.90;;;;;;4180327;28;20038;-65
2022/01/09 03:11:28;;;;;;;20.05;3.90;;;5.90;99.90;;;;;;4178083;28;20052;-64
2022/01/09 03:13:29;;;;;;;25.42;4.47;;;5.90;99.90;;;;;;4180407;28;20119;-65
2022/01/09 03:15:29;;;;;;;32.67;5.68;;;5.90;99.90;;;;;;4181094;28;20041;-65
2022/01/09 03:17:30;;;;;;;19.63;4.18;;;5.90;99.90;;;;;;4181724;28;20037;-65
2022/01/09 03:19:31;;;;;;;35.28;5.13;;;6.00;99.90;;;;;;4177643;28;20053;-65
2022/01/09 03:21:31;;;;;;;30.95;5.72;;;6.00;99.90;;;;;;4178575;28;20392;-65
2022/01/09 03:23:32;;;;;;;26.20;5.70;;;6.10;99.90;;;;;;4180200;28;20051;-65
2022/01/09 03:25:33;;;;;;;36.83;6.25;;;6.10;99.90;;;;;;4179932;28;20045;-65
2022/01/09 03:27:34;;;;;;;28.80;5.07;;;6.10;99.90;;;;;;4179019;28;20053;-65
2022/01/09 03:29:34;;;;;;;34.58;6.10;;;6.20;99.90;;;;;;4179194;28;20472;-65
2022/01/09 03:31:35;;;;;;;41.33;6.43;;;6.20;99.90;;;;;;4180071;28;20480;-65
2022/01/09 03:33:36;;;;;;;43.97;5.72;;;6.20;99.90;;;;;;4177601;28;20472;-65
2022/01/09 03:35:36;;;;;;;33.05;5.63;;;6.20;99.90;;;;;;4179648;28;20075;-64
2022/01/09 03:37:38;;;;;;;21.40;3.85;;;6.20;99.90;;;;;;4178780;28;20046;-65
2022/01/09 03:39:38;;;;;;;25.42;4.60;;;6.20;99.90;;;;;;4180471;28;20434;-65
2022/01/09 03:41:39;;;;;;;25.17;3.85;;;6.10;99.90;;;;;;4177804;28;20033;-65
2022/01/09 03:43:39;;;;;;;19.95;3.38;;;6.10;99.90;;;;;;4181215;28;20102;-65
2022/01/09 03:45:40;;;;;;;21.98;4.18;;;6.10;99.90;;;;;;4177589;28;20040;-65
2022/01/09 03:47:41;;;;;;;17.83;3.45;;;6.10;99.90;;;;;;4178411;28;20415;-65
2022/01/09 03:49:41;;;;;;;21.63;3.90;;;6.10;99.90;;;;;;4176319;28;20029;-64
2022/01/09 03:51:44;;;;;;;27.48;4.18;;;6.10;99.90;;;;;;4177878;28;20044;-65
2022/01/09 03:53:45;;;;;;;29.98;5.43;;;6.10;99.90;;;;;;4179694;28;20032;-65
2022/01/09 03:55:46;;;;;;;25.05;4.93;;;6.10;99.90;;;;;;4179702;28;20041;-65
2022/01/09 03:57:48;;;;;;;32.90;5.28;;;6.20;99.90;;;;;;4179068;28;20497;-65
2022/01/09 03:59:49;;;;;;;18.60;4.47;;;6.20;99.90;;;;;;4177979;28;20067;-64
2022/01/09 04:01:50;;;;;;;32.05;5.60;;;6.20;99.90;;;;;;4179175;28;20450;-65
2022/01/09 04:03:51;;;;;;;28.20;5.82;;;6.20;99.90;;;;;;4177958;28;20045;-65
2022/01/09 04:05:51;;;;;;;31.77;6.15;;;6.20;99.90;;;;;;4178758;28;20352;-64
2022/01/09 04:07:52;;;;;;;31.67;6.32;;;6.20;99.90;;;;;;4179349;28;20086;-64
2022/01/09 04:09:53;;;;;;;28.35;5.03;;;6.20;99.90;;;;;;4174884;28;20399;-65
2022/01/09 04:12:03;;;;;;;26.45;5.25;;;6.30;99.90;;;;;;4173404;28;20044;-65
2022/01/09 04:14:03;;;;;;;33.38;6.35;;;6.20;99.90;;;;;;4175601;28;20090;-65
2022/01/09 04:16:04;;;;;;;32.30;5.93;;;6.20;99.90;;;;;;4173096;28;20056;-65
2022/01/09 04:18:05;;;;;;;38.67;6.35;;;6.30;99.90;;;;;;4173391;28;20041;-65
2022/01/09 04:20:08;;;;;;;34.75;6.18;;;6.30;99.90;;;;;;4174062;28;20038;-65
2022/01/09 04:22:08;;;;;;;;;;;6.30;99.90;;;;;;4175200;28;20559;-65
2022/01/09 04:24:09;;;;;;;32.50;5.75;;;6.30;99.90;;;;;;4174235;28;19935;-65
2022/01/09 04:26:10;;;;;;;27.95;5.53;;;6.30;99.90;;;;;;4156006;28;20487;-65
2022/01/09 04:28:12;;;;;;;35.67;6.15;;;6.30;99.90;;;;;;4174875;28;20052;-65
2022/01/09 04:30:14;;;;;;;39.45;6.82;;;6.30;99.90;;;;;;4173246;28;20045;-65
2022/01/09 04:32:14;;;;;;;38.37;6.70;;;6.40;99.90;;;;;;4172506;28;20036;-66
2022/01/09 04:34:15;;;;;;;33.10;5.63;;;6.30;99.90;;;;;;4173596;28;20045;-65
2022/01/09 04:36:16;;;;;;;31.33;6.40;;;6.30;99.90;;;;;;4177751;28;20033;-65
2022/01/09 04:38:16;;;;;;;30.98;5.78;;;6.30;99.90;;;;;;4177747;28;20124;-65
2022/01/09 04:40:19;;;;;;;32.22;5.65;;;6.40;99.90;;;;;;4178685;28;20025;-65
2022/01/09 04:42:24;;;;;;;32.13;6.38;;;6.30;99.90;;;;;;4176720;28;20492;-65
2022/01/09 04:44:24;;;;;;;38.08;5.82;;;6.40;99.90;;;;;;4164498;28;20440;-65
2022/01/09 04:46:35;;;;;;;34.30;5.88;;;6.40;99.90;;;;;;4176841;28;20029;-65
2022/01/09 04:48:36;;;;;;;22.02;4.78;;;6.40;99.90;;;;;;4163685;28;20052;-65
2022/01/09 04:50:38;;;;;;;30.63;4.90;;;6.40;99.90;;;;;;4173512;28;20501;-65
2022/01/09 04:52:40;;;;;;;33.72;6.03;;;6.40;99.90;;;;;;4178535;28;20068;-65
2022/01/09 04:54:41;;;;;;;34.47;5.85;;;6.40;99.90;;;;;;4178042;28;20041;-65
2022/01/09 04:56:41;;;;;;;27.98;4.88;;;6.30;99.90;;;;;;4177494;28;20489;-65
2022/01/09 04:58:42;;;;;;;35.45;5.82;;;6.30;99.90;;;;;;4177601;28;20045;-65
2022/01/09 05:00:43;;;;;;;34.65;5.63;;;6.30;99.90;;;;;;4177631;28;20040;-65
2022/01/09 05:02:44;;;;;;;29.92;5.85;;;6.30;99.90;;;;;;4176953;28;20037;-65
2022/01/09 05:04:45;;;;;;;26.35;5.03;;;6.30;99.90;;;;;;4173090;28;20132;-66
2022/01/09 05:06:45;;;;;;;30.10;5.35;;;6.30;99.90;;;;;;4171780;28;20032;-65
2022/01/09 05:08:46;;;;;;;27.80;5.03;;;6.30;99.90;;;;;;4178466;28;20029;-65
2022/01/09 05:10:46;;;;;;;30.25;5.22;;;6.30;99.90;;;;;;4175672;28;20033;-65
2022/01/09 05:12:47;;;;;;;28.17;4.82;;;6.30;99.90;;;;;;4177859;28;20045;-65
2022/01/09 05:14:48;;;;;;;23.65;4.72;;;6.40;99.90;;;;;;4177620;28;20052;-65
2022/01/09 05:16:49;;;;;;;25.52;4.75;;;6.30;99.90;;;;;;4176359;28;20119;-64
2022/01/09 05:18:58;;;;;;;23.48;5.03;;;6.30;99.90;;;;;;4176674;28;20037;-65
2022/01/09 05:20:59;;;;;;;21.25;4.45;;;6.30;99.90;;;;;;4176991;28;20049;-65
2022/01/09 05:22:59;;;;;;;21.40;4.50;;;6.30;99.90;;;;;;4174967;28;20090;-65
2022/01/09 05:25:02;;;;;;;24.63;5.00;;;6.30;99.90;;;;;;4178182;28;20040;-65
2022/01/09 05:27:03;;;;;;;18.90;3.97;;;6.20;99.90;;;;;;4178023;28;20045;-65
2022/01/09 05:29:04;;;;;;;29.48;4.68;;;6.30;99.90;;;;;;4176592;28;20063;-65
2022/01/09 05:31:04;;;;;;;19.65;4.18;;;6.30;99.90;;;;;;4162766;28;20042;-65
2022/01/09 05:33:05;;;;;;;26.00;4.55;;;6.30;99.90;;;;;;4177668;28;20419;-67
2022/01/09 05:35:06;;;;;;;29.65;4.70;;;6.20;99.90;;;;;;4177095;28;20053;-66
2022/01/09 05:37:07;;;;;;;22.60;4.32;;;6.30;99.90;;;;;;4177766;28;20373;-65
2022/01/09 05:39:07;;;;;;;22.95;4.40;;;6.30;99.90;;;;;;4176688;28;20044;-65
2022/01/09 05:41:08;;;;;;;19.63;3.67;;;6.20;99.90;;;;;;4175529;28;20029;-65
2022/01/09 05:43:08;;;;;;;15.93;3.88;;;6.20;99.90;;;;;;4177622;28;20454;-65
2022/01/09 05:45:10;;;;;;;27.35;4.55;;;6.20;99.90;;;;;;4174541;28;20043;-66
2022/01/09 05:47:11;;;;;;;12.75;2.97;;;6.20;99.90;;;;;;4176683;28;20410;-65
2022/01/09 05:49:11;;;;;;;19.75;3.80;;;6.20;99.90;;;;;;4177246;28;20125;-65
2022/01/09 05:51:12;;;;;;;25.55;3.92;;;6.20;99.90;;;;;;4177471;28;20036;-65
2022/01/09 05:53:13;;;;;;;26.75;4.25;;;6.20;99.90;;;;;;4177159;28;20060;-65
2022/01/09 05:55:13;;;;;;;20.67;4.15;;;6.20;99.90;;;;;;4177434;28;20048;-66
2022/01/09 05:57:14;;;;;;;32.33;3.92;;;6.20;99.90;;;;;;4176209;28;20029;-65
2022/01/09 05:59:14;;;;;;;18.80;3.45;;;6.20;99.90;;;;;;4176815;28;20386;-65
2022/01/09 06:01:15;;;;;;;19.55;3.33;;;6.20;99.90;;;;;;4173502;28;20032;-66
2022/01/09 06:03:15;;;;;;;14.50;3.65;;;6.20;99.90;;;;;;4177069;28;20029;-66
2022/01/09 06:05:16;;;;;;;19.38;4.10;;;6.20;99.90;;;;;;4176719;28;20036;-65
2022/01/09 06:07:17;;;;;;;20.95;4.07;;;6.20;99.90;;;;;;4176486;28;20068;-65
2022/01/09 06:09:17;;;;;;;22.95;4.07;;;6.20;99.90;;;;;;4176710;28;20117;-65
2022/01/09 06:11:18;;;;;;;12.25;3.10;;;6.10;99.90;;;;;;4178002;28;20033;-65
2022/01/09 06:13:19;;;;;;;16.45;3.17;;;6.10;99.90;;;;;;4181615;28;20041;-65
2022/01/09 06:15:19;;;;;;;17.75;3.67;;;6.10;99.90;;;;;;4183035;28;20575;-65
2022/01/09 06:17:20;;;;;;;14.52;3.28;;;6.10;99.90;;;;;;4181597;28;20067;-65
2022/01/09 06:19:21;;;;;;;16.60;2.60;;;6.10;99.90;;;;;;4181457;28;20044;-65
2022/01/09 06:21:21;;;;;;;18.13;3.00;;;6.20;99.90;;;;;;4179454;28;20036;-65
2022/01/09 06:23:23;;;;;;;15.40;3.10;;;6.10;99.90;;;;;;4179139;28;20438;-65
2022/01/09 06:25:24;;;;;;;21.63;4.10;;;6.20;99.90;;;;;;4181604;28;20041;-65
2022/01/09 06:27:24;;;;;;;10.25;2.92;;;6.20;99.90;;;;;;4183457;28;20036;-65
2022/01/09 06:29:25;;;;;;;24.50;4.35;;;6.10;99.90;;;;;;4182982;28;20118;-65
2022/01/09 06:31:26;;;;;;;12.23;2.90;;;6.10;99.90;;;;;;4179326;28;20033;-65
2022/01/09 06:33:26;;;;;;;11.82;3.10;;;6.10;99.90;;;;;;4181243;28;20459;-65
2022/01/09 06:35:27;;;;;;;15.75;3.58;;;6.10;99.90;;;;;;4182409;28;20041;-65
2022/01/09 06:37:28;;;;;;;15.50;3.75;;;6.10;99.90;;;;;;4183108;28;20041;-65
2022/01/09 06:39:29;;;;;;;20.42;3.55;;;6.10;99.90;;;;;;4182435;28;20064;-65
2022/01/09 06:41:31;;;;;;;13.60;3.10;;;6.10;99.90;;;;;;4180755;28;20038;-65
2022/01/09 06:43:32;;;;;;;13.52;3.22;;;6.10;99.90;;;;;;4181345;28;21127;-65
2022/01/09 06:45:33;;;;;;;13.93;3.50;;;6.10;99.90;;;;;;4179644;28;20521;-65
2022/01/09 06:47:33;;;;;;;11.45;3.05;;;6.10;99.90;;;;;;4179231;28;20037;-65
2022/01/09 06:49:35;;;;;;;14.15;3.08;;;6.00;99.90;;;;;;4183357;28;20075;-65
2022/01/09 06:51:35;;;;;;;14.18;3.63;;;6.00;99.90;;;;;;4166816;28;20053;-65
2022/01/09 06:53:37;;;;;;;15.48;2.85;;;6.00;99.90;;;;;;4183634;28;20049;-65
2022/01/09 06:55:37;;;;;;;10.95;2.78;;;6.00;99.90;;;;;;4181694;28;20093;-65
2022/01/09 06:57:39;;;;;;;24.90;3.53;;;6.00;99.90;;;;;;4182099;28;20049;-65
2022/01/09 06:59:40;;;;;;;21.30;2.70;;;6.00;99.90;;;;;;4179920;28;20055;-64
2022/01/09 07:01:40;;;;;;;12.32;2.42;;;6.00;99.90;;;;;;4180468;28;20037;-65
2022/01/09 07:03:41;;;;;;;13.60;2.95;;;6.00;99.90;;;;;;4180351;28;20095;-65
2022/01/09 07:05:41;;;;;;;14.55;3.25;;;6.00;99.90;;;;;;4182712;28;20118;-65
2022/01/09 07:07:42;;;;;;;9.68;2.85;;;5.90;99.90;;;;;;4184080;28;20041;-65
2022/01/09 07:09:43;;;;;;;15.25;2.85;;;5.90;99.90;;;;;;4183231;28;20395;-65
2022/01/09 07:11:43;;;;;;;16.05;2.42;;;5.90;99.90;;;;;;4179710;28;20415;-65
2022/01/09 07:13:44;;;;;;;18.15;3.05;;;5.90;99.90;;;;;;4183422;28;20098;-65
2022/01/09 07:15:45;;;;;;;14.23;2.60;;;5.90;99.90;;;;;;4180195;28;20033;-65
2022/01/09 07:17:45;;;;;;;14.73;3.20;;;5.90;99.90;;;;;;4181225;28;20086;-64
2022/01/09 07:19:46;;;;;;;13.77;2.60;;;5.90;99.90;;;;;;4177556;28;20467;-66
2022/01/09 07:21:46;;;;;;;18.17;3.33;;;5.90;99.90;;;;;;4174268;28;20132;-66
2022/01/09 07:23:47;;;;;;;15.10;2.40;;;5.80;99.90;;;;;;4174536;28;20070;-65
2022/01/09 07:25:48;;;;;;;12.50;2.67;;;5.90;99.90;;;;;;4175563;28;20037;-65
2022/01/09 07:27:48;;;;;;;18.02;3.38;;;5.90;99.90;;;;;;4178286;28;20494;-65
2022/01/09 07:29:49;;;;;;;12.77;2.55;;;5.80;99.90;;;;;;4180752;28;20036;-65
2022/01/09 07:31:51;;;;;;;17.67;2.70;;;5.80;99.90;;;;;;4177295;28;20051;-65
2022/01/09 07:33:52;;;;;;;14.48;3.35;;;5.80;99.90;;;;;;4164898;28;20037;-65
2022/01/09 07:35:52;;;;;;;11.55;3.33;;;5.80;99.90;;;;;;4180451;28;20040;-65
2022/01/09 07:37:53;;;;;;;16.25;2.50;;;5.90;99.90;;;;;;4182599;28;20045;-65
2022/01/09 07:39:53;;;;;;;20.50;3.08;;;5.90;99.90;;;;;;4179958;28;20095;-65
2022/01/09 07:41:57;;;;;;;14.00;2.75;;;5.80;99.90;;;;;;4178186;28;20498;-65
2022/01/09 07:43:58;;;;;;;18.42;3.55;;;5.80;99.90;;;;;;4179986;28;20075;-65
2022/01/09 07:45:58;;;;;;;10.07;2.88;;;5.80;99.90;;;;;;4180741;28;20399;-65
2022/01/09 07:48:00;;;;;;;14.75;2.78;;;5.80;99.90;;;;;;4176730;28;20116;-65
2022/01/09 07:50:01;;;;;;;21.67;3.20;;;5.80;99.90;;;;;;4177572;28;20115;-65
2022/01/09 07:52:02;;;;;;;11.85;2.65;;;5.90;99.90;;;;;;4178407;28;20033;-65
2022/01/09 07:54:03;;;;;;;18.42;3.22;;;5.80;99.90;;;;;;4177294;28;20041;-65
2022/01/09 07:56:05;;;;;;;13.60;2.80;;;5.80;99.90;;;;;;4175644;28;20041;-65
2022/01/09 07:58:05;;;;;;;13.48;2.08;;;5.80;99.90;;;;;;4183432;28;20037;-65
2022/01/09 08:00:09;;;;;;;17.65;3.53;;;5.80;99.90;;;;;;4181465;28;20040;-65
2022/01/09 08:02:09;;;;;;;10.52;2.50;;;5.90;99.90;;;;;;4179891;28;20391;-65
2022/01/09 08:04:10;;;;;;;29.92;3.72;;;5.80;99.90;;;;;;4180017;28;20045;-65
2022/01/09 08:06:11;;;;;;;12.45;3.53;;;5.80;99.90;;;;;;4177881;28;20037;-65
2022/01/09 08:08:11;;;;;;;10.25;2.35;;;5.80;99.90;;;;;;4178412;28;20041;-65
2022/01/09 08:10:12;;;;;;;21.95;3.22;;;5.80;99.90;;;;;;4175279;28;20119;-65
2022/01/09 08:12:16;;;;;;;12.48;2.80;;;5.80;99.90;;;;;;4177332;28;20052;-65
2022/01/09 08:14:17;;;;;;;16.33;3.08;;;5.80;99.90;;;;;;4180692;28;20052;-65
2022/01/09 08:16:18;;;;;;;10.10;3.15;;;5.70;99.90;;;;;;4177770;28;20041;-65
2022/01/09 08:18:18;;;;;;;13.63;2.38;;;5.70;99.90;;;;;;4179385;28;20168;-65
2022/01/09 08:20:19;;;;;;;13.50;3.45;;;5.70;99.90;;;;;;4178349;28;20464;-65
2022/01/09 08:22:19;;;;;;;8.95;2.70;;;5.80;99.90;;;;;;4177983;28;20121;-65
2022/01/09 08:24:20;;;;;;;12.30;2.67;;;5.70;99.90;;;;;;4181315;28;20033;-65
2022/01/09 08:26:20;;;;;;;17.98;3.15;;;5.70;99.90;;;;;;4178478;28;20033;-65
2022/01/09 08:28:21;;;;;;;8.32;2.42;;;5.70;99.90;;;;;;4179320;28;20041;-65
2022/01/09 08:30:22;;;;;;;12.15;2.67;;;5.70;99.90;;;;;;4178802;28;20152;-65
2022/01/09 08:32:23;;;;;;;18.67;3.47;;;5.70;99.90;;;;;;4179621;28;20033;-65
2022/01/09 08:34:23;;;;;;;12.52;3.22;;;5.70;99.90;;;;;;4178992;28;20045;-65
2022/01/09 08:36:24;;;;;;;8.57;2.65;;;5.70;99.90;;;;;;4178763;28;20467;-65
2022/01/09 08:38:25;;;;;;;13.00;3.95;;;5.80;99.90;;;;;;4164986;28;20048;-65
2022/01/09 08:40:25;;;;;;;9.85;3.10;;;5.80;99.90;;;;;;4176376;28;20036;-65
2022/01/09 08:42:26;;;;;;;15.75;4.30;;;5.80;99.90;;;;;;4179210;28;20041;-65
2022/01/09 08:44:26;;;;;;;14.00;2.90;;;5.80;99.90;;;;;;4179237;28;20041;-65
2022/01/09 08:46:28;;;;;;;11.82;3.80;;;5.80;99.90;;;;;;4177780;28;20102;-65
2022/01/09 08:48:28;;;;;;;16.17;2.88;;;5.80;99.90;;;;;;4175989;28;20487;-65
2022/01/09 08:50:31;;;;;;;15.35;3.67;;;5.80;99.90;;;;;;4180661;28;20082;-65
2022/01/09 08:52:32;;;;;;;10.88;2.55;;;5.80;99.90;;;;;;4174203;28;20025;-65
2022/01/09 08:54:34;;;;;;;14.70;2.75;;;5.80;99.90;;;;;;4177497;28;20045;-65
2022/01/09 08:56:38;;;;;;;10.02;2.50;;;5.80;99.90;;;;;;4177506;28;20037;-65
2022/01/09 08:58:39;;;;;;;12.40;2.65;;;5.90;99.90;;;;;;4177679;28;20044;-65
2022/01/09 09:00:39;;;;;;;12.35;2.72;;;5.90;99.90;;;;;;4175262;28;20064;-65
2022/01/09 09:02:41;;;;;;;15.95;3.28;;;5.90;99.90;;;;;;4178302;28;20037;-65
2022/01/09 09:04:41;;;;;;;12.55;2.28;;;5.90;99.90;;;;;;4177779;28;20045;-65
2022/01/09 09:06:42;;;;;;;15.48;3.75;;;6.00;99.90;;;;;;4174738;28;20387;-65
2022/01/09 09:08:43;;;;;;;13.27;3.15;;;6.00;99.90;;;;;;4179408;28;20048;-65
2022/01/09 09:10:46;;;;;;;11.82;2.88;;;6.00;99.90;;;;;;4178218;28;20037;-65
2022/01/09 09:12:47;;;;;;;12.43;3.08;;;6.00;99.90;;;;;;4177544;28;20551;-66
2022/01/09 09:14:48;;;;;;;9.30;2.85;;;6.10;99.90;;;;;;4178643;28;20037;-66
2022/01/09 09:16:49;;;;;;;9.10;1.88;;;6.10;99.90;;;;;;4177924;28;20543;-66
2022/01/09 09:18:50;;;;;;;19.35;3.15;;;6.10;99.90;;;;;;4181274;28;20051;-65
2022/01/09 09:20:51;;;;;;;9.57;2.28;;;6.20;99.90;;;;;;4175791;28;20033;-65
2022/01/09 09:22:52;;;;;;;16.45;3.47;;;6.20;99.90;;;;;;4178357;28;20140;-65
2022/01/09 09:24:53;;;;;;;13.10;2.58;;;6.10;99.90;;;;;;4177397;28;20479;-65
2022/01/09 09:26:53;;;;;;;14.18;2.60;;;6.10;99.90;;;;;;4180749;28;20044;-65
2022/01/09 09:28:54;;;;;;;8.68;2.33;;;6.10;99.90;;;;;;4178011;28;20053;-65
2022/01/09 09:30:55;;;;;;;10.65;2.40;;;6.10;99.90;;;;;;4179441;28;21118;-65
2022/01/09 09:32:56;;;;;;;11.75;2.42;;;6.10;99.90;;;;;;4176566;28;20127;-65
2022/01/09 09:34:57;;;;;;;9.68;2.33;;;6.10;99.90;;;;;;4178169;28;20487;-65
2022/01/09 09:36:58;;;;;;;10.90;2.60;;;6.10;99.90;;;;;;4176324;28;20124;-65
2022/01/09 09:38:58;;;;;;;15.55;3.28;;;6.10;99.90;;;;;;4176901;28;20041;-65
2022/01/09 09:40:59;;;;;;;15.38;2.90;;;6.20;99.90;;;;;;4176814;28;20067;-65
2022/01/09 09:43:00;;;;;;;20.10;3.00;;;6.20;99.90;;;;;;4177053;28;20047;-65
2022/01/09 09:45:08;;;;;;;9.07;2.40;;;6.20;99.90;;;;;;4182248;28;20124;-65
2022/01/09 09:47:10;;;;;;;10.95;2.10;;;6.20;99.90;;;;;;4176146;28;20120;-65
2022/01/09 09:49:10;;;;;;;15.07;2.97;;;6.30;99.90;;;;;;4175911;28;20043;-65
2022/01/09 09:51:11;;;;;;;10.70;2.65;;;6.30;99.90;;;;;;4174852;28;20140;-65
2022/01/09 09:53:12;;;;;;;16.55;3.30;;;6.30;99.90;;;;;;4179990;28;20043;-65
2022/01/09 09:55:13;;;;;;;8.57;2.70;;;6.30;99.90;;;;;;4177934;28;20048;-65
2022/01/09 09:57:14;;;;;;;11.25;3.13;;;6.40;99.90;;;;;;4178840;28;20029;-65
2022/01/09 09:59:23;;;;;;;16.95;3.60;;;6.40;99.90;;;;;;4174363;28;20033;-65
2022/01/09 10:01:27;;;;;;;12.07;2.60;;;6.40;99.90;;;;;;4178516;28;20029;-65
2022/01/09 10:03:33;;;;;;;12.95;3.10;;;6.40;99.90;;;;;;4180932;28;20379;-65
2022/01/09 10:05:39;;;;;;;13.07;3.50;;;6.40;99.90;;;;;;4172955;28;20467;-65
2022/01/09 10:07:40;;;;;;;13.23;2.65;;;6.50;99.90;;;;;;4178701;28;20057;-65
2022/01/09 10:09:55;;;;;;;13.02;3.40;;;6.60;99.90;;;;;;4179174;28;20036;-65
2022/01/09 10:12:04;;;;;;;12.63;2.90;;;6.60;99.90;;;;;;4174668;28;20029;-65
2022/01/09 10:14:18;;;;;;;13.75;2.78;;;6.60;99.90;;;;;;4176510;28;20068;-65
2022/01/09 10:16:18;;;;;;;14.70;4.15;;;6.60;99.90;;;;;;4178334;28;20048;-66
2022/01/09 10:18:49;;;;;;;8.65;2.47;;;6.60;99.90;;;;;;4175817;28;20041;-65
2022/01/09 10:21:05;;;;;;;12.95;2.88;;;6.60;99.90;;;;;;4174111;28;20472;-65
2022/01/09 10:23:06;;;;;;;11.55;2.92;;;6.60;99.90;;;;;;4176054;28;20025;-65
2022/01/09 10:25:31;;;;;;;11.88;2.70;;;6.60;99.90;;;;;;4176650;28;20495;-66
2022/01/09 10:27:33;;;;;;;12.15;2.53;;;6.60;99.90;;;;;;4176924;28;20040;-65
2022/01/09 10:29:33;;;;;;;8.48;2.30;;;6.60;99.90;;;;;;4182602;28;20040;-65
2022/01/09 10:31:42;;;;;;;10.40;2.28;;;6.60;99.90;;;;;;4175277;28;20407;-65
2022/01/09 10:34:06;;;;;;;10.38;2.42;;;6.60;99.90;;;;;;4177931;28;20465;-65
2022/01/09 10:36:09;;;;;;;9.43;2.72;;;6.50;99.90;;;;;;4177682;28;20053;-65